createdAt,value
2022-12-12T00:02:40.938Z,66.17
2022-12-12T00:05:28.138Z,73.83
2022-12-12T00:08:15.225Z,67.37
2022-12-12T00:11:02.312Z,62.57
2022-12-12T00:13:49.493Z,68.20
2022-12-12T00:16:36.540Z,67.90
2022-12-12T00:19:23.541Z,61.80
2022-12-12T00:22:10.781Z,62.73
2022-12-12T00:24:57.869Z,70.33
2022-12-12T00:27:44.932Z,62.37
2022-12-12T00:30:31.900Z,67.17
2022-12-12T00:33:18.927Z,63.97
2022-12-12T00:36:06.646Z,70.90
2022-12-12T00:38:54.412Z,71.60
2022-12-12T00:41:41.327Z,69.47
2022-12-12T00:44:28.332Z,75.67
2022-12-12T00:47:15.284Z,64.33
2022-12-12T00:50:02.365Z,71.20
2022-12-12T00:52:49.277Z,72.60
2022-12-12T00:55:36.272Z,73.90
2022-12-12T00:58:23.667Z,71.43
2022-12-12T01:01:13.269Z,73.80
2022-12-12T01:04:01.334Z,72.27
2022-12-12T01:06:48.346Z,74.07
2022-12-12T01:09:35.397Z,63.70
2022-12-12T01:12:22.349Z,69.90
2022-12-12T01:15:11.215Z,77.17
2022-12-12T01:17:58.712Z,66.67
2022-12-12T01:20:46.521Z,71.33
2022-12-12T01:23:33.494Z,72.27
2022-12-12T01:26:23.553Z,72.23
2022-12-12T01:29:10.620Z,65.10
2022-12-12T01:31:57.628Z,65.43
2022-12-12T01:34:44.587Z,65.93
2022-12-12T01:37:31.579Z,73.20
2022-12-12T01:40:30.623Z,62.97
2022-12-12T01:43:20.111Z,64.53
2022-12-12T01:46:33.344Z,73.80
2022-12-12T01:49:25.369Z,73.90
2022-12-12T01:52:19.898Z,66.50
2022-12-12T01:55:11.281Z,70.00
2022-12-12T01:57:58.492Z,70.80
2022-12-12T02:00:46.091Z,70.50
2022-12-12T02:03:33.262Z,68.23
2022-12-12T02:06:25.724Z,80.20
2022-12-12T02:09:15.923Z,75.80
2022-12-12T02:12:02.912Z,68.13
2022-12-12T02:14:52.518Z,70.90
2022-12-12T02:17:46.600Z,73.60
2022-12-12T02:20:57.740Z,71.30
2022-12-12T02:23:50.636Z,70.53
2022-12-12T02:26:46.564Z,66.07
2022-12-12T02:29:43.472Z,78.33
2022-12-12T02:33:01.047Z,75.63
2022-12-12T02:36:06.206Z,71.53
2022-12-12T02:39:00.507Z,70.50
2022-12-12T02:42:10.578Z,72.23
2022-12-12T02:45:09.819Z,66.23
2022-12-12T02:48:20.741Z,71.17
2022-12-12T02:51:11.359Z,70.87
2022-12-12T02:54:03.991Z,62.63
2022-12-12T02:56:57.547Z,71.03
2022-12-12T02:59:50.559Z,71.37
2022-12-12T03:02:46.675Z,73.33
2022-12-12T03:06:02.145Z,66.27
2022-12-12T03:09:01.419Z,66.90
2022-12-12T03:12:21.761Z,63.97
2022-12-12T03:15:28.137Z,69.37
2022-12-12T03:18:33.440Z,69.47
2022-12-12T03:21:59.085Z,68.87
2022-12-12T03:25:11.287Z,66.00
2022-12-12T03:28:38.093Z,63.33
2022-12-12T03:31:31.629Z,67.87
2022-12-12T03:34:31.564Z,66.37
2022-12-12T03:37:27.481Z,64.93
2022-12-12T03:40:39.794Z,61.77
2022-12-12T03:43:43.232Z,69.83
2022-12-12T03:46:41.074Z,64.67
2022-12-12T03:49:45.504Z,64.83
2022-12-12T03:52:39.565Z,63.17
2022-12-12T03:55:43.528Z,69.87
2022-12-12T03:58:45.788Z,68.17
2022-12-12T04:01:42.289Z,71.87
2022-12-12T04:04:35.054Z,60.37
2022-12-12T04:07:26.396Z,66.37
2022-12-12T04:10:32.212Z,66.90
2022-12-12T04:13:48.229Z,68.43
2022-12-12T04:16:41.241Z,62.93
2022-12-12T04:19:58.602Z,69.77
2022-12-12T04:23:15.526Z,64.80
2022-12-12T04:26:32.007Z,65.90
2022-12-12T04:29:18.925Z,62.40
2022-12-12T04:32:19.977Z,67.73
2022-12-12T04:35:16.082Z,71.23
2022-12-12T04:38:10.883Z,65.87
2022-12-12T04:41:00.651Z,69.00
2022-12-12T04:43:51.059Z,59.53
2022-12-12T04:46:39.839Z,66.60
2022-12-12T04:49:31.453Z,63.20
2022-12-12T04:52:21.304Z,70.13
2022-12-12T04:55:22.069Z,71.23
2022-12-12T04:58:09.378Z,67.67
2022-12-12T05:01:02.270Z,66.90
2022-12-12T05:04:03.322Z,64.70
2022-12-12T05:06:56.599Z,68.30
2022-12-12T05:09:44.248Z,67.93
2022-12-12T05:12:40.268Z,69.43
2022-12-12T05:15:29.657Z,65.17
2022-12-12T05:18:17.209Z,66.53
2022-12-12T05:21:04.348Z,65.53
2022-12-12T05:23:51.396Z,74.50
2022-12-12T05:26:38.554Z,79.37
2022-12-12T05:29:25.791Z,76.67
2022-12-12T05:32:12.799Z,68.80
2022-12-12T05:34:59.878Z,73.47
2022-12-12T05:37:51.680Z,74.17
2022-12-12T05:40:39.159Z,66.70
2022-12-12T05:43:26.204Z,72.50
2022-12-12T05:46:13.337Z,69.07
2022-12-12T05:49:00.353Z,69.13
2022-12-12T05:51:47.301Z,56.73
2022-12-12T05:54:34.292Z,64.90
2022-12-12T05:57:21.328Z,59.73
2022-12-12T06:00:09.173Z,63.20
2022-12-12T06:02:56.189Z,68.57
2022-12-12T06:05:43.376Z,62.13
2022-12-12T06:08:30.435Z,64.30
2022-12-12T06:11:18.208Z,56.00
2022-12-12T06:14:05.217Z,56.47
2022-12-12T06:16:53.027Z,58.10
2022-12-12T06:19:40.020Z,60.17
2022-12-12T06:22:27.211Z,59.17
2022-12-12T06:25:14.582Z,53.83
2022-12-12T06:28:01.890Z,58.97
2022-12-12T06:30:48.896Z,55.00
2022-12-12T06:33:36.621Z,60.30
2022-12-12T06:36:25.248Z,63.07
2022-12-12T06:39:12.304Z,69.50
2022-12-12T06:41:59.600Z,73.43
2022-12-12T06:44:46.633Z,71.03
2022-12-12T06:47:33.651Z,69.63
2022-12-12T06:50:23.890Z,65.87
2022-12-12T06:53:11.666Z,64.37
2022-12-12T06:55:58.709Z,61.13
2022-12-12T06:58:45.721Z,64.53
2022-12-12T07:01:32.940Z,59.17
2022-12-12T07:04:20.290Z,65.67
2022-12-12T07:07:07.261Z,59.13
2022-12-12T07:09:54.847Z,64.07
2022-12-12T07:12:45.443Z,66.03
2022-12-12T07:15:34.592Z,68.70
2022-12-12T07:18:21.957Z,59.77
2022-12-12T07:21:16.644Z,64.67
2022-12-12T07:24:10.509Z,57.20
2022-12-12T07:26:58.048Z,58.23
2022-12-12T07:29:47.795Z,62.57
2022-12-12T07:32:35.518Z,56.63
2022-12-12T07:35:23.659Z,54.73
2022-12-12T07:38:11.800Z,60.50
2022-12-12T07:41:11.487Z,59.87
2022-12-12T07:43:59.497Z,51.87
2022-12-12T07:46:46.663Z,53.87
2022-12-12T07:49:33.797Z,60.27
2022-12-12T07:52:21.827Z,50.10
2022-12-12T07:55:09.513Z,58.17
2022-12-12T07:57:56.810Z,56.63
2022-12-12T08:00:44.345Z,47.47
2022-12-12T08:03:31.308Z,56.13
2022-12-12T08:06:20.202Z,55.47
2022-12-12T08:09:07.364Z,54.10
2022-12-12T08:11:58.586Z,50.87
2022-12-12T08:14:45.722Z,56.17
2022-12-12T08:17:32.879Z,51.17
2022-12-12T08:20:19.989Z,54.33
2022-12-12T08:23:07.772Z,58.27
2022-12-12T08:25:54.832Z,48.70
2022-12-12T08:28:44.842Z,52.10
2022-12-12T08:31:32.167Z,53.53
2022-12-12T08:34:19.324Z,50.93
2022-12-12T08:37:06.381Z,48.53
2022-12-12T08:39:55.699Z,49.27
2022-12-12T08:42:43.095Z,52.00
2022-12-12T08:45:30.130Z,46.83
2022-12-12T08:48:17.183Z,46.57
2022-12-12T08:51:04.364Z,40.63
2022-12-12T08:53:53.167Z,53.20
2022-12-12T08:56:41.388Z,45.60
2022-12-12T08:59:28.703Z,39.17
2022-12-12T09:02:15.865Z,40.00
2022-12-12T09:05:02.893Z,39.43
2022-12-12T09:07:50.762Z,39.30
2022-12-12T09:10:37.827Z,42.43
2022-12-12T09:13:25.412Z,37.73
2022-12-12T09:16:13.037Z,44.43
2022-12-12T09:19:00.149Z,40.67
2022-12-12T09:21:47.122Z,36.70
2022-12-12T09:24:34.154Z,42.90
2022-12-12T09:27:23.166Z,43.30
2022-12-12T09:30:10.623Z,43.23
2022-12-12T09:32:57.609Z,37.73
2022-12-12T09:35:44.857Z,38.43
2022-12-12T09:38:32.712Z,39.97
2022-12-12T09:41:23.756Z,35.50
2022-12-12T09:44:18.620Z,36.73
2022-12-12T09:47:12.058Z,36.90
2022-12-12T09:50:04.847Z,32.47
2022-12-12T09:52:54.097Z,33.73
2022-12-12T09:55:53.194Z,38.23
2022-12-12T09:58:57.001Z,35.40
2022-12-12T10:02:18.222Z,42.23
2022-12-12T10:05:15.312Z,39.20
2022-12-12T10:08:25.732Z,39.23
2022-12-12T10:11:40.482Z,39.20
2022-12-12T10:14:38.067Z,34.57
2022-12-12T10:17:46.969Z,38.33
2022-12-12T10:20:42.017Z,37.10
2022-12-12T10:24:05.102Z,36.20
2022-12-12T10:26:55.371Z,31.50
2022-12-12T10:29:49.620Z,28.63
2022-12-12T10:32:43.201Z,32.63
2022-12-12T10:36:07.585Z,35.27
2022-12-12T10:39:30.171Z,36.07
2022-12-12T10:42:35.161Z,34.70
2022-12-12T10:45:37.450Z,33.57
2022-12-12T10:48:24.630Z,33.93
2022-12-12T10:51:15.798Z,35.27
2022-12-12T10:54:11.872Z,33.33
2022-12-12T10:57:19.916Z,29.47
2022-12-12T11:00:27.241Z,33.10
2022-12-12T11:03:42.827Z,31.80
2022-12-12T11:06:48.663Z,28.10
2022-12-12T11:09:44.694Z,32.40
2022-12-12T11:12:35.531Z,28.53
2022-12-12T11:15:29.341Z,34.67
2022-12-12T11:18:19.944Z,31.20
2022-12-12T11:21:11.371Z,28.40
2022-12-12T11:24:00.465Z,26.40
2022-12-12T11:27:00.071Z,29.17
2022-12-12T11:29:50.178Z,30.37
2022-12-12T11:32:44.210Z,29.23
2022-12-12T11:35:34.853Z,26.50
2022-12-12T11:38:30.064Z,26.93
2022-12-12T11:41:17.581Z,29.27
2022-12-12T11:44:04.601Z,24.67
2022-12-12T11:46:51.690Z,28.83
2022-12-12T11:49:46.944Z,23.67
2022-12-12T11:52:34.193Z,28.33
2022-12-12T11:55:50.133Z,27.70
2022-12-12T11:58:55.800Z,25.30
2022-12-12T12:01:55.049Z,27.20
2022-12-12T12:04:53.309Z,29.83
2022-12-12T12:08:18.796Z,37.50
2022-12-12T12:11:38.156Z,27.97
2022-12-12T12:15:11.143Z,27.90
2022-12-12T12:18:16.643Z,29.77
2022-12-12T12:21:13.827Z,27.07
2022-12-12T12:24:23.003Z,29.17
2022-12-12T12:27:33.203Z,33.03
2022-12-12T12:30:33.550Z,28.07
2022-12-12T12:33:45.322Z,25.73
2022-12-12T12:36:46.247Z,27.00
2022-12-12T12:39:53.150Z,28.43
2022-12-12T12:42:50.087Z,26.80
2022-12-12T12:45:57.709Z,27.93
2022-12-12T12:48:50.264Z,26.80
2022-12-12T12:51:47.014Z,29.90
2022-12-12T12:54:41.524Z,32.83
2022-12-12T12:57:39.320Z,26.27
2022-12-12T13:00:30.811Z,28.33
2022-12-12T13:03:24.485Z,33.80
2022-12-12T13:06:21.139Z,26.03
2022-12-12T13:09:32.598Z,33.17
2022-12-12T13:12:39.988Z,28.60
2022-12-12T13:15:39.356Z,31.27
2022-12-12T13:18:33.487Z,30.77
2022-12-12T13:21:44.347Z,39.37
2022-12-12T13:25:00.231Z,32.27
2022-12-12T13:27:52.818Z,31.50
2022-12-12T13:30:42.776Z,28.70
2022-12-12T13:33:43.593Z,33.43
2022-12-12T13:36:37.686Z,29.13
2022-12-12T13:39:35.285Z,35.10
2022-12-12T13:42:22.372Z,34.37
2022-12-12T13:45:34.348Z,31.67
2022-12-12T13:48:29.989Z,32.67
2022-12-12T13:51:30.340Z,33.63
2022-12-12T13:54:17.337Z,32.17
2022-12-12T13:57:22.491Z,33.30
2022-12-12T14:00:18.673Z,31.90
2022-12-12T14:03:38.246Z,37.07
2022-12-12T14:06:28.689Z,31.73
2022-12-12T14:09:22.332Z,35.73
2022-12-12T14:12:19.653Z,35.33
2022-12-12T14:15:28.524Z,33.40
2022-12-12T14:18:22.185Z,33.20
2022-12-12T14:21:14.540Z,36.53
2022-12-12T14:24:33.448Z,32.87
2022-12-12T14:28:00.518Z,34.53
2022-12-12T14:31:04.605Z,35.27
2022-12-12T14:34:17.567Z,32.43
2022-12-12T14:37:26.208Z,35.47
2022-12-12T14:40:31.298Z,34.43
2022-12-12T14:43:29.140Z,36.93
2022-12-12T14:46:18.283Z,32.93
2022-12-12T14:49:06.264Z,36.40
2022-12-12T14:51:57.061Z,35.57
2022-12-12T14:54:44.066Z,30.87
2022-12-12T14:57:31.211Z,37.77
2022-12-12T15:00:19.618Z,37.23
2022-12-12T15:03:07.634Z,39.17
2022-12-12T15:06:19.464Z,36.60
2022-12-12T15:09:26.624Z,42.37
2022-12-12T15:12:15.367Z,38.60
2022-12-12T15:15:05.210Z,35.80
2022-12-12T15:17:53.026Z,42.80
2022-12-12T15:20:40.061Z,37.60
2022-12-12T15:23:27.068Z,45.37
2022-12-12T15:26:20.420Z,41.50
2022-12-12T15:29:07.658Z,37.03
2022-12-12T15:32:01.723Z,37.93
2022-12-12T15:35:18.869Z,41.07
2022-12-12T15:38:13.456Z,40.57
2022-12-12T15:41:06.672Z,38.33
2022-12-12T15:43:57.112Z,37.63
2022-12-12T15:46:46.065Z,40.10
2022-12-12T15:49:41.609Z,42.93
2022-12-12T15:52:30.713Z,41.57
2022-12-12T15:55:21.461Z,50.73
2022-12-12T15:58:28.886Z,50.23
2022-12-12T16:01:19.933Z,54.20
2022-12-12T16:04:12.612Z,59.67
2022-12-12T16:07:20.189Z,47.90
2022-12-12T16:10:10.168Z,50.60
2022-12-12T16:13:02.280Z,57.20
2022-12-12T16:15:49.402Z,52.43
2022-12-12T16:18:40.645Z,53.43
2022-12-12T16:21:28.903Z,53.53
2022-12-12T16:24:25.812Z,56.07
2022-12-12T16:27:12.893Z,58.33
2022-12-12T16:29:59.850Z,56.63
2022-12-12T16:32:47.012Z,51.30
2022-12-12T16:35:33.920Z,63.87
2022-12-12T16:38:21.473Z,68.87
2022-12-12T16:41:12.852Z,57.23
2022-12-12T16:44:01.383Z,61.23
2022-12-12T16:46:48.423Z,51.93
2022-12-12T16:49:37.591Z,58.23
2022-12-12T16:52:26.768Z,61.73
2022-12-12T16:55:22.340Z,56.50
2022-12-12T16:58:10.090Z,63.53
2022-12-12T17:00:59.168Z,62.43
2022-12-12T17:03:46.693Z,60.67
2022-12-12T17:06:33.709Z,62.13
2022-12-12T17:09:23.308Z,54.10
2022-12-12T17:12:13.342Z,52.90
2022-12-12T17:15:00.453Z,45.77
2022-12-12T17:17:47.455Z,47.37
2022-12-12T17:20:37.533Z,51.57
2022-12-12T17:23:27.823Z,53.40
2022-12-12T17:26:15.384Z,53.40
2022-12-12T17:29:02.878Z,59.43
2022-12-12T17:31:50.046Z,55.07
2022-12-12T17:34:37.065Z,51.53
2022-12-12T17:37:24.464Z,52.73
2022-12-12T17:40:12.532Z,53.23
2022-12-12T17:42:59.789Z,51.53
2022-12-12T17:45:56.390Z,53.47
2022-12-12T17:48:47.319Z,50.23
2022-12-12T17:51:34.391Z,49.43
2022-12-12T17:54:23.274Z,52.20
2022-12-12T17:57:11.255Z,45.67
2022-12-12T17:59:58.909Z,55.37
2022-12-12T18:02:45.902Z,58.93
2022-12-12T18:05:32.977Z,54.13
2022-12-12T18:08:20.011Z,57.13
2022-12-12T18:11:12.871Z,53.73
2022-12-12T18:14:02.118Z,60.97
2022-12-12T18:16:51.319Z,56.93
2022-12-12T18:19:38.545Z,58.67
2022-12-12T18:22:25.648Z,52.23
2022-12-12T18:25:12.738Z,63.80
2022-12-12T18:27:59.904Z,61.40
2022-12-12T18:30:49.898Z,64.57
2022-12-12T18:33:36.889Z,64.30
2022-12-12T18:36:27.880Z,61.90
2022-12-12T18:39:17.246Z,58.33
2022-12-12T18:42:04.673Z,61.90
2022-12-12T18:44:51.585Z,62.50
2022-12-12T18:47:38.609Z,64.10
2022-12-12T18:50:25.589Z,58.57
2022-12-12T18:53:12.934Z,66.97
2022-12-12T18:56:00.410Z,58.90
2022-12-12T18:58:48.076Z,73.23
2022-12-12T19:01:37.041Z,57.00
2022-12-12T19:04:24.209Z,56.77
2022-12-12T19:07:11.984Z,53.30
2022-12-12T19:09:59.191Z,59.83
2022-12-12T19:12:46.879Z,59.67
2022-12-12T19:15:36.114Z,63.47
2022-12-12T19:18:24.177Z,63.87
2022-12-12T19:21:24.078Z,62.93
2022-12-12T19:24:12.671Z,57.93
2022-12-12T19:27:00.197Z,62.97
2022-12-12T19:29:47.441Z,63.47
2022-12-12T19:32:35.020Z,68.40
2022-12-12T19:35:22.831Z,65.57
2022-12-12T19:38:10.164Z,68.00
2022-12-12T19:41:03.328Z,64.87
2022-12-12T19:43:52.820Z,60.80
2022-12-12T19:46:42.100Z,64.37
2022-12-12T19:49:29.110Z,64.80
2022-12-12T19:52:16.537Z,72.73
2022-12-12T19:55:04.189Z,76.93
2022-12-12T19:57:51.174Z,68.67
2022-12-12T20:00:38.182Z,70.40
2022-12-12T20:03:25.129Z,71.93
2022-12-12T20:06:12.984Z,76.30
2022-12-12T20:09:00.418Z,73.30
2022-12-12T20:11:47.986Z,71.23
2022-12-12T20:14:35.700Z,76.13
2022-12-12T20:17:23.021Z,68.93
2022-12-12T20:20:11.092Z,67.53
2022-12-12T20:22:58.200Z,69.57
2022-12-12T20:25:45.296Z,66.93
2022-12-12T20:28:32.556Z,69.70
2022-12-12T20:31:23.315Z,64.73
2022-12-12T20:34:12.026Z,63.93
2022-12-12T20:36:59.032Z,60.70
2022-12-12T20:39:46.158Z,58.03
2022-12-12T20:42:33.121Z,57.90
2022-12-12T20:45:20.190Z,48.87
2022-12-12T20:48:07.919Z,53.33
2022-12-12T20:50:58.500Z,49.23
2022-12-12T20:53:49.202Z,47.13
2022-12-12T20:56:39.172Z,52.60
2022-12-12T20:59:28.606Z,55.40
2022-12-12T21:02:16.267Z,52.40
2022-12-12T21:05:05.680Z,53.90
2022-12-12T21:07:52.672Z,48.33
2022-12-12T21:10:39.880Z,54.60
2022-12-12T21:13:26.872Z,51.27
2022-12-12T21:16:19.720Z,57.50
2022-12-12T21:19:12.971Z,55.03
2022-12-12T21:21:59.927Z,49.30
2022-12-12T21:24:46.934Z,47.03
2022-12-12T21:27:33.948Z,56.57
2022-12-12T21:30:20.972Z,57.37
2022-12-12T21:33:08.215Z,54.50
2022-12-12T21:35:55.389Z,55.77
2022-12-12T21:38:43.173Z,55.37
2022-12-12T21:41:30.275Z,61.37
2022-12-12T21:44:17.403Z,63.60
2022-12-12T21:47:04.561Z,65.30
2022-12-12T21:49:51.553Z,65.80
2022-12-12T21:52:38.569Z,65.13
2022-12-12T21:55:25.509Z,62.53
2022-12-12T21:58:12.484Z,59.50
2022-12-12T22:01:09.258Z,53.47
2022-12-12T22:03:56.328Z,63.13
2022-12-12T22:06:44.773Z,62.23
2022-12-12T22:09:31.764Z,70.40
2022-12-12T22:12:19.100Z,68.13
2022-12-12T22:15:06.785Z,62.03
2022-12-12T22:17:54.392Z,64.87
2022-12-12T22:20:41.600Z,57.60
2022-12-12T22:23:28.772Z,56.73
2022-12-12T22:26:30.840Z,55.20
2022-12-12T22:29:20.408Z,54.03
2022-12-12T22:32:08.666Z,56.77
2022-12-12T22:34:58.146Z,50.73
2022-12-12T22:37:45.364Z,52.07
2022-12-12T22:40:33.080Z,60.77
2022-12-12T22:43:20.051Z,50.87
2022-12-12T22:46:08.012Z,58.10
2022-12-12T22:48:56.647Z,53.03
2022-12-12T22:51:44.429Z,52.63
2022-12-12T22:54:31.453Z,51.40
2022-12-12T22:57:18.617Z,48.63
2022-12-12T23:00:06.837Z,50.87
2022-12-12T23:02:53.852Z,49.60
2022-12-12T23:05:40.816Z,63.03
2022-12-12T23:08:27.891Z,62.27
2022-12-12T23:11:16.321Z,62.53
2022-12-12T23:14:09.566Z,59.50
2022-12-12T23:16:56.681Z,65.27
2022-12-12T23:19:45.278Z,56.83
2022-12-12T23:22:32.217Z,59.53
2022-12-12T23:25:19.159Z,59.07
2022-12-12T23:28:10.696Z,62.53
2022-12-12T23:31:01.113Z,62.60
2022-12-12T23:33:52.060Z,68.07
2022-12-12T23:36:39.109Z,57.17
2022-12-12T23:39:27.161Z,63.63
2022-12-12T23:42:14.100Z,56.17
2022-12-12T23:45:01.072Z,62.50
2022-12-12T23:47:47.981Z,62.00
2022-12-12T23:50:35.509Z,60.77
2022-12-12T23:53:22.582Z,55.20
2022-12-12T23:56:09.565Z,55.40
2022-12-12T23:58:58.022Z,47.23
